Time;durP1;ratioP1;P1;durP2;ratioP2;P2;SDS_P1;SDS_P2;PMS_P1;PMS_P2;Temp;Humidity;BMP_temperature;BMP_pressure;BME280_temperature;BME280_humidity;BME280_pressure;Samples;Min_cycle;Max_cycle;Signal;HPM_P1;HPM_P2
2023/10/05 00:03:46;;;;;;;6.18;5.63;;;7.40;99.90;;;;;;4929089;29;20024;-61
2023/10/05 00:06:23;;;;;;;6.55;5.95;;;7.50;99.90;;;;;;4926039;29;20036;-61
2023/10/05 00:08:54;;;;;;;8.20;6.53;;;7.50;99.90;;;;;;4927174;29;20023;-61
2023/10/05 00:11:30;;;;;;;6.35;5.75;;;7.60;99.90;;;;;;4928692;29;20032;-61
2023/10/05 00:13:59;;;;;;;7.00;5.85;;;7.60;99.90;;;;;;4929795;29;20459;-61
2023/10/05 00:16:38;;;;;;;6.68;5.50;;;7.70;99.90;;;;;;4928749;29;20460;-62
2023/10/05 00:19:12;;;;;;;5.55;4.95;;;7.70;99.90;;;;;;4927035;29;20401;-61
2023/10/05 00:21:42;;;;;;;4.43;3.28;;;7.70;99.90;;;;;;4930281;29;20058;-61
2023/10/05 00:24:08;;;;;;;6.38;4.10;;;7.70;99.90;;;;;;4928213;29;20522;-61
2023/10/05 00:26:34;;;;;;;4.50;3.80;;;7.70;99.90;;;;;;4928227;29;20031;-61
2023/10/05 00:29:20;;;;;;;4.38;3.97;;;7.70;99.90;;;;;;4927646;29;20111;-61
2023/10/05 00:31:47;;;;;;;4.55;3.80;;;7.80;99.90;;;;;;4927387;29;20032;-61
2023/10/05 00:34:35;;;;;;;4.18;3.80;;;7.80;99.90;;;;;;4927744;29;20031;-61
2023/10/05 00:36:59;;;;;;;8.07;4.53;;;7.80;99.90;;;;;;4926128;29;20087;-62
2023/10/05 00:39:29;;;;;;;6.65;5.10;;;7.90;99.90;;;;;;4927830;29;20111;-60
2023/10/05 00:44:30;;;;;;;8.52;5.13;;;8.00;99.90;;;;;;4924307;29;20042;-61
2023/10/05 00:47:00;;;;;;;5.70;5.07;;;8.10;99.90;;;;;;4928081;29;20072;-62
2023/10/05 00:49:31;;;;;;;7.30;4.60;;;8.10;99.90;;;;;;4927224;29;20063;-61
2023/10/05 00:52:15;;;;;;;5.60;4.53;;;8.00;99.90;;;;;;4928093;29;20036;-61
2023/10/05 00:54:51;;;;;;;6.95;4.70;;;8.00;99.90;;;;;;4926496;29;20040;-61
2023/10/05 00:57:21;;;;;;;7.82;4.57;;;8.00;99.90;;;;;;4927016;29;20531;-61
2023/10/05 00:59:49;;;;;;;4.78;4.28;;;7.90;99.90;;;;;;4928561;29;20436;-60
2023/10/05 01:02:15;;;;;;;5.18;4.25;;;7.90;99.90;;;;;;4928133;29;20019;-61
2023/10/05 01:07:28;;;;;;;4.72;4.18;;;7.80;99.90;;;;;;4925881;29;20035;-60
2023/10/05 01:10:28;;;;;;;5.03;4.55;;;7.70;99.90;;;;;;4928808;29;20031;-61
2023/10/05 01:12:48;;;;;;;5.10;4.50;;;7.70;99.90;;;;;;4926483;29;20028;-61
2023/10/05 01:15:19;;;;;;;7.45;4.55;;;7.60;99.90;;;;;;4927887;29;20396;-61
2023/10/05 01:17:47;;;;;;;9.00;5.18;;;7.60;99.90;;;;;;4926508;29;20123;-61
2023/10/05 01:22:48;;;;;;;5.22;3.92;;;7.60;99.90;;;;;;4913618;29;20079;-61
2023/10/05 01:25:14;;;;;;;6.25;5.47;;;7.60;99.90;;;;;;4927530;29;20036;-61
2023/10/05 01:27:52;;;;;;;7.00;4.32;;;7.60;99.90;;;;;;4927100;29;20075;-61
2023/10/05 01:30:19;;;;;;;4.13;3.70;;;7.50;99.90;;;;;;4926105;29;20024;-60
2023/10/05 01:32:46;;;;;;;5.30;3.95;;;7.50;99.90;;;;;;4925453;29;20076;-62
2023/10/05 01:35:13;;;;;;;5.57;4.47;;;7.50;99.90;;;;;;4927662;29;20567;-61
2023/10/05 01:37:40;;;;;;;7.55;4.38;;;7.50;99.90;;;;;;4926448;28;20043;-61
2023/10/05 01:42:47;;;;;;;8.05;4.35;;;7.50;99.90;;;;;;4925647;29;20561;-60
2023/10/05 01:45:17;;;;;;;6.50;4.93;;;7.50;99.90;;;;;;4926968;28;20051;-61
2023/10/05 01:47:46;;;;;;;6.25;5.03;;;7.50;99.90;;;;;;4925693;29;20024;-61
2023/10/05 01:50:19;;;;;;;6.07;5.05;;;7.50;99.90;;;;;;4925771;29;20075;-61
2023/10/05 01:53:37;;;;;;;7.72;4.85;;;7.50;99.90;;;;;;4925855;28;20070;-61
2023/10/05 01:55:39;;;;;;;5.07;4.57;;;7.50;99.90;;;;;;4918115;29;20083;-61
2023/10/05 01:58:05;;;;;;;6.75;5.18;;;7.50;99.90;;;;;;4925177;28;20123;-62
2023/10/05 02:00:32;;;;;;;6.13;5.53;;;7.50;99.90;;;;;;4924624;29;20032;-62
2023/10/05 02:02:57;;;;;;;7.35;5.65;;;7.50;99.90;;;;;;4923759;29;20019;-60
2023/10/05 02:05:23;;;;;;;5.30;4.78;;;7.50;99.90;;;;;;4929102;29;20032;-61
2023/10/05 02:07:50;;;;;;;7.45;5.30;;;7.50;99.90;;;;;;4925049;29;20497;-62
2023/10/05 02:10:20;;;;;;;6.72;5.03;;;7.60;99.90;;;;;;4925747;29;20250;-64
2023/10/05 02:12:54;;;;;;;7.35;5.03;;;7.60;99.90;;;;;;4931619;29;20077;-64
2023/10/05 02:15:26;;;;;;;9.38;5.18;;;7.60;99.90;;;;;;4931730;29;20043;-63
2023/10/05 02:17:54;;;;;;;8.00;4.90;;;7.60;99.90;;;;;;4926477;29;20030;-64
2023/10/05 02:20:38;;;;;;;5.47;4.93;;;7.60;99.90;;;;;;4931212;29;20041;-63
2023/10/05 02:23:18;;;;;;;5.35;4.72;;;7.60;99.90;;;;;;4929927;29;20028;-63
2023/10/05 02:25:44;;;;;;;7.38;5.10;;;7.60;99.90;;;;;;4929153;29;20433;-63
2023/10/05 02:28:19;;;;;;;5.72;4.55;;;7.60;99.90;;;;;;4928973;29;20038;-64
2023/10/05 02:30:49;;;;;;;11.10;5.15;;;7.60;99.90;;;;;;4925542;29;20024;-64
2023/10/05 02:33:15;;;;;;;5.38;4.82;;;7.60;99.90;;;;;;4928246;29;20492;-64
2023/10/05 02:35:41;;;;;;;5.22;4.75;;;7.60;99.90;;;;;;4930638;29;20095;-63
2023/10/05 02:38:07;;;;;;;5.95;4.47;;;7.60;99.90;;;;;;4930646;29;20036;-63
2023/10/05 02:40:39;;;;;;;7.05;5.20;;;7.60;99.90;;;;;;4929858;29;20115;-63
2023/10/05 02:43:07;;;;;;;7.57;5.72;;;7.60;99.90;;;;;;4932565;29;20054;-64
2023/10/05 02:45:37;;;;;;;6.82;4.85;;;7.60;99.90;;;;;;4929584;29;20032;-64
2023/10/05 02:48:06;;;;;;;6.10;4.72;;;7.60;99.90;;;;;;4930228;29;20035;-63
2023/10/05 02:50:32;;;;;;;5.63;4.90;;;7.60;99.90;;;;;;4933461;29;20535;-63
2023/10/05 02:53:03;;;;;;;7.05;5.32;;;7.60;99.90;;;;;;4930508;29;20076;-64
2023/10/05 02:55:35;;;;;;;6.32;4.70;;;7.60;99.90;;;;;;4928604;29;20365;-64
2023/10/05 02:58:03;;;;;;;6.75;5.55;;;7.60;99.90;;;;;;4927778;29;20023;-63
2023/10/05 03:00:29;;;;;;;6.55;5.82;;;7.70;99.90;;;;;;4927894;29;20445;-63
2023/10/05 03:02:54;;;;;;;5.82;5.22;;;7.80;99.90;;;;;;4929266;29;20706;-63
2023/10/05 03:05:20;;;;;;;5.88;5.38;;;7.80;99.90;;;;;;4930449;29;20101;-64
2023/10/05 03:07:48;;;;;;;6.72;5.10;;;7.80;99.90;;;;;;4925100;29;20103;-63
2023/10/05 03:10:16;;;;;;;4.93;4.53;;;7.80;99.90;;;;;;4930064;29;20484;-64
2023/10/05 03:12:43;;;;;;;6.15;4.93;;;7.80;99.90;;;;;;4926958;29;20038;-64
2023/10/05 03:15:09;;;;;;;5.18;4.68;;;7.80;99.90;;;;;;4928053;29;20028;-63
2023/10/05 03:17:37;;;;;;;6.60;4.95;;;7.80;99.90;;;;;;4930286;29;20015;-64
2023/10/05 03:20:08;;;;;;;9.07;4.45;;;7.80;99.90;;;;;;4928761;29;20643;-64
2023/10/05 03:22:34;;;;;;;5.72;4.53;;;7.80;99.90;;;;;;4928072;29;20032;-63
2023/10/05 03:25:00;;;;;;;6.30;4.60;;;7.80;99.90;;;;;;4928530;29;20035;-63
2023/10/05 03:27:26;;;;;;;5.45;4.57;;;7.80;99.90;;;;;;4929333;29;20504;-63
2023/10/05 03:29:52;;;;;;;5.03;4.05;;;7.90;99.90;;;;;;4929454;28;20045;-60
2023/10/05 03:32:19;;;;;;;6.07;4.55;;;7.90;99.90;;;;;;4930249;29;20442;-61
2023/10/05 03:34:55;;;;;;;4.00;3.60;;;7.90;99.90;;;;;;4928467;29;20091;-61
2023/10/05 03:37:22;;;;;;;7.65;4.30;;;8.00;99.90;;;;;;4930127;29;20093;-60
2023/10/05 03:39:56;;;;;;;5.30;4.13;;;8.00;99.90;;;;;;4930337;29;20032;-61
2023/10/05 03:42:22;;;;;;;7.40;4.07;;;8.00;99.90;;;;;;4926696;29;20096;-61
2023/10/05 03:45:00;;;;;;;5.38;4.13;;;7.90;99.90;;;;;;4927096;29;20024;-62
2023/10/05 03:47:26;;;;;;;4.45;3.67;;;7.90;99.90;;;;;;4931373;29;20685;-60
2023/10/05 03:49:55;;;;;;;5.57;4.22;;;7.90;99.90;;;;;;4930843;28;20044;-62
2023/10/05 03:52:21;;;;;;;4.80;4.30;;;7.90;99.90;;;;;;4929762;29;20047;-61
2023/10/05 03:54:47;;;;;;;7.70;4.32;;;7.90;99.90;;;;;;4930960;28;20131;-61
2023/10/05 03:57:13;;;;;;;5.43;3.90;;;7.90;99.90;;;;;;4929329;29;20123;-62
2023/10/05 03:59:39;;;;;;;3.95;3.55;;;7.90;99.90;;;;;;4927767;29;20030;-61
2023/10/05 04:02:06;;;;;;;7.05;4.28;;;7.80;99.90;;;;;;4930786;29;20512;-60
2023/10/05 04:04:34;;;;;;;6.55;4.55;;;7.80;99.90;;;;;;4924569;29;20071;-61
2023/10/05 04:07:03;;;;;;;9.30;4.15;;;7.80;99.90;;;;;;4931032;29;20029;-61
2023/10/05 04:09:35;;;;;;;5.32;4.00;;;7.80;99.90;;;;;;4929638;29;20092;-61
2023/10/05 04:12:04;;;;;;;8.32;4.25;;;7.70;99.90;;;;;;4927505;29;20023;-61
2023/10/05 04:14:29;;;;;;;5.72;3.70;;;7.70;99.90;;;;;;4932076;29;20047;-61
2023/10/05 04:16:57;;;;;;;5.00;3.85;;;7.70;99.90;;;;;;4929945;29;20062;-61
2023/10/05 04:19:24;;;;;;;4.03;3.63;;;7.60;99.90;;;;;;4928325;29;20044;-60
2023/10/05 04:21:52;;;;;;;7.40;4.03;;;7.60;99.90;;;;;;4927055;29;20031;-62
2023/10/05 04:24:17;;;;;;;3.95;3.45;;;7.50;99.90;;;;;;4928234;29;20029;-60
2023/10/05 04:26:45;;;;;;;6.15;3.85;;;7.40;99.90;;;;;;4927641;29;20487;-61
2023/10/05 04:29:20;;;;;;;4.40;3.50;;;7.40;99.90;;;;;;4928996;29;20504;-61
2023/10/05 04:31:48;;;;;;;4.85;3.50;;;7.40;99.90;;;;;;4929478;29;20405;-61
2023/10/05 04:34:18;;;;;;;4.18;3.78;;;7.40;99.90;;;;;;4925328;29;20021;-61
2023/10/05 04:36:45;;;;;;;6.80;4.40;;;7.40;99.90;;;;;;4928407;29;20038;-61
2023/10/05 04:39:13;;;;;;;5.78;3.80;;;7.50;99.90;;;;;;4910951;29;20084;-61
2023/10/05 04:41:49;;;;;;;5.80;4.32;;;7.50;99.90;;;;;;4930064;29;20051;-58
2023/10/05 04:44:15;;;;;;;6.40;3.72;;;7.50;99.90;;;;;;4927656;29;20405;-61
2023/10/05 04:46:48;;;;;;;5.20;3.95;;;7.60;99.90;;;;;;4929983;29;20020;-61
2023/10/05 04:49:16;;;;;;;7.80;4.32;;;7.60;99.90;;;;;;4925373;29;20023;-61
2023/10/05 04:51:43;;;;;;;4.85;4.18;;;7.50;99.90;;;;;;4926455;29;20024;-59
2023/10/05 04:54:17;;;;;;;5.82;4.18;;;7.50;99.90;;;;;;4923530;29;20461;-60
2023/10/05 04:57:35;;;;;;;3.92;3.50;;;7.50;99.90;;;;;;4923780;29;20613;-60
2023/10/05 05:02:12;;;;;;;;;;;7.50;99.90;;;;;;4928390;29;20536;-61
2023/10/05 05:04:52;;;;;;;4.53;3.75;;;7.40;99.90;;;;;;4927369;29;19958;-61
2023/10/05 05:07:21;;;;;;;4.70;3.80;;;7.40;99.90;;;;;;4925581;29;20440;-61
2023/10/05 05:09:47;;;;;;;5.45;4.13;;;7.40;99.90;;;;;;4925167;29;20028;-60
2023/10/05 05:12:16;;;;;;;8.75;4.03;;;7.40;99.90;;;;;;4929598;29;20059;-61
2023/10/05 05:14:44;;;;;;;5.78;5.07;;;7.50;99.90;;;;;;4931551;29;20408;-61
2023/10/05 05:17:24;;;;;;;5.88;4.60;;;7.50;99.90;;;;;;4923439;29;20035;-61
2023/10/05 05:19:52;;;;;;;5.63;4.32;;;7.50;99.90;;;;;;4923864;29;20036;-60
2023/10/05 05:22:18;;;;;;;6.13;4.43;;;7.50;99.90;;;;;;4924966;29;20113;-62
2023/10/05 05:24:45;;;;;;;5.60;4.53;;;7.60;99.90;;;;;;4926669;29;20508;-61
2023/10/05 05:29:37;;;;;;;6.07;4.63;;;7.60;99.90;;;;;;4928929;29;20034;-64
2023/10/05 05:32:13;;;;;;;6.38;4.75;;;7.60;99.90;;;;;;4926897;29;20401;-64
2023/10/05 05:34:42;;;;;;;8.15;4.78;;;7.60;99.90;;;;;;4926828;29;20036;-63
2023/10/05 05:37:25;;;;;;;6.53;4.22;;;7.70;99.90;;;;;;4924781;29;20039;-64
2023/10/05 05:39:53;;;;;;;5.07;4.57;;;7.70;99.90;;;;;;4926315;29;20036;-64
2023/10/05 05:42:19;;;;;;;8.75;4.32;;;7.70;99.90;;;;;;4910687;28;20039;-63
2023/10/05 05:44:44;;;;;;;5.68;4.55;;;7.70;99.90;;;;;;4928715;29;20020;-63
2023/10/05 05:47:10;;;;;;;8.73;4.30;;;7.70;99.90;;;;;;4927623;29;20061;-64
2023/10/05 05:49:40;;;;;;;6.50;4.95;;;7.60;99.90;;;;;;4925020;29;20028;-64
2023/10/05 05:52:06;;;;;;;7.88;4.85;;;7.70;99.90;;;;;;4927566;28;20405;-63
2023/10/05 05:54:38;;;;;;;5.97;5.00;;;7.70;99.90;;;;;;4926931;29;20027;-63
2023/10/05 05:57:07;;;;;;;7.95;4.93;;;7.80;99.90;;;;;;4925489;29;20032;-63
2023/10/05 05:59:38;;;;;;;6.25;4.70;;;7.80;99.90;;;;;;4924882;29;20028;-63
2023/10/05 06:02:06;;;;;;;8.75;4.78;;;7.90;99.90;;;;;;4925154;29;20028;-63
2023/10/05 06:04:35;;;;;;;5.13;4.25;;;7.90;99.90;;;;;;4908532;28;20055;-64
2023/10/05 06:07:03;;;;;;;7.90;4.45;;;8.00;99.90;;;;;;4925110;29;20397;-63
2023/10/05 06:09:33;;;;;;;6.68;5.03;;;8.00;99.90;;;;;;4927368;29;20148;-63
2023/10/05 06:12:00;;;;;;;6.10;5.32;;;8.10;99.90;;;;;;4922504;29;20043;-64
2023/10/05 06:14:27;;;;;;;5.55;4.80;;;8.10;99.90;;;;;;4929240;29;20032;-64
2023/10/05 06:16:53;;;;;;;5.22;4.30;;;8.20;99.90;;;;;;4925421;28;20042;-62
2023/10/05 06:19:18;;;;;;;6.18;5.57;;;8.30;99.90;;;;;;4925318;29;20044;-63
2023/10/05 06:21:45;;;;;;;4.65;4.10;;;8.30;99.90;;;;;;4924974;29;20032;-63
2023/10/05 06:24:11;;;;;;;5.13;4.15;;;8.40;99.90;;;;;;4926944;29;20676;-63
2023/10/05 06:26:38;;;;;;;10.05;5.38;;;8.40;99.90;;;;;;4927321;29;20032;-61
2023/10/05 06:29:08;;;;;;;5.32;4.82;;;8.50;99.90;;;;;;4924836;29;20095;-62
2023/10/05 06:31:35;;;;;;;8.05;4.55;;;8.60;99.90;;;;;;4925889;29;20047;-62
2023/10/05 06:34:00;;;;;;;4.93;4.43;;;8.70;99.90;;;;;;4925019;29;20296;-62
2023/10/05 06:36:26;;;;;;;8.80;4.93;;;8.80;99.90;;;;;;4911175;29;20027;-62
2023/10/05 06:38:52;;;;;;;8.95;4.90;;;8.90;99.90;;;;;;4907558;29;20036;-62
2023/10/05 06:41:22;;;;;;;8.48;4.65;;;9.00;99.90;;;;;;4925303;29;20102;-62
2023/10/05 06:43:49;;;;;;;8.27;4.75;;;9.00;99.90;;;;;;4926852;29;20027;-62
2023/10/05 06:46:17;;;;;;;6.38;4.07;;;9.10;99.90;;;;;;4929122;29;20047;-62
2023/10/05 06:48:44;;;;;;;7.95;5.13;;;9.20;99.90;;;;;;4927478;29;20032;-62
2023/10/05 06:51:11;;;;;;;7.18;3.92;;;9.20;99.90;;;;;;4926840;29;20055;-62
2023/10/05 06:53:37;;;;;;;5.38;3.92;;;9.30;99.90;;;;;;4927493;29;20031;-62
2023/10/05 06:56:03;;;;;;;5.78;3.95;;;9.40;99.90;;;;;;4926096;29;20024;-62
2023/10/05 06:58:29;;;;;;;7.38;3.38;;;9.50;99.90;;;;;;4932025;29;20059;-62
2023/10/05 07:00:54;;;;;;;6.20;4.05;;;9.60;99.90;;;;;;4925574;29;20599;-62
2023/10/05 07:03:20;;;;;;;4.93;4.00;;;9.70;99.90;;;;;;4928645;29;20055;-61
2023/10/05 07:05:47;;;;;;;3.97;3.42;;;9.80;99.90;;;;;;4927706;29;20408;-60
2023/10/05 07:08:14;;;;;;;6.45;3.78;;;9.90;99.90;;;;;;4928442;29;20024;-63
2023/10/05 07:10:40;;;;;;;6.80;4.07;;;10.00;99.90;;;;;;4930723;29;20035;-61
2023/10/05 07:13:08;;;;;;;7.32;3.90;;;10.00;99.90;;;;;;4930482;29;20106;-62
2023/10/05 07:15:35;;;;;;;5.57;3.20;;;10.10;99.90;;;;;;4931655;29;20484;-61
2023/10/05 07:18:01;;;;;;;5.28;3.97;;;10.20;99.90;;;;;;4930131;29;20028;-62
2023/10/05 07:20:27;;;;;;;4.10;3.55;;;10.20;99.90;;;;;;4930551;29;20450;-62
2023/10/05 07:22:53;;;;;;;5.38;3.92;;;10.30;99.90;;;;;;4927828;29;20036;-62
2023/10/05 07:25:19;;;;;;;4.05;3.42;;;10.30;99.90;;;;;;4929621;29;20054;-62
2023/10/05 07:27:45;;;;;;;4.93;3.97;;;10.40;99.90;;;;;;4930596;29;20524;-62
2023/10/05 07:30:11;;;;;;;5.15;3.45;;;10.40;99.90;;;;;;4930845;29;20051;-62
2023/10/05 07:32:37;;;;;;;6.75;4.22;;;10.40;99.90;;;;;;4928793;29;20031;-62
2023/10/05 07:35:07;;;;;;;6.88;3.97;;;10.50;99.90;;;;;;4928349;29;20508;-62
2023/10/05 07:37:35;;;;;;;6.10;4.28;;;10.60;99.90;;;;;;4928558;29;20078;-62
2023/10/05 07:40:00;;;;;;;8.80;4.43;;;10.70;99.90;;;;;;4926438;29;20151;-62
2023/10/05 07:42:28;;;;;;;6.63;4.38;;;10.90;99.90;;;;;;4928144;29;20155;-61
2023/10/05 07:44:54;;;;;;;4.43;3.78;;;11.00;99.90;;;;;;4928285;29;20032;-62
2023/10/05 07:47:21;;;;;;;6.82;4.30;;;11.30;99.90;;;;;;4922031;29;20032;-62
2023/10/05 07:49:46;;;;;;;6.28;4.65;;;11.50;99.90;;;;;;4930550;29;20028;-62
2023/10/05 07:52:14;;;;;;;6.13;2.90;;;11.70;99.90;;;;;;4929584;28;20124;-61
2023/10/05 07:54:40;;;;;;;8.23;4.43;;;11.80;99.90;;;;;;4928837;29;20024;-62
2023/10/05 07:57:11;;;;;;;5.95;4.80;;;11.90;99.90;;;;;;4927865;28;20040;-62
2023/10/05 07:59:41;;;;;;;6.32;3.67;;;11.90;99.90;;;;;;4928021;29;20028;-62
2023/10/05 08:02:08;;;;;;;5.65;3.63;;;11.90;99.90;;;;;;4930269;29;20105;-61
2023/10/05 08:04:35;;;;;;;6.43;4.32;;;12.00;99.90;;;;;;4927817;28;20082;-62
2023/10/05 08:07:01;;;;;;;5.57;3.60;;;12.10;99.90;;;;;;4929868;29;20399;-62
2023/10/05 08:09:27;;;;;;;11.73;4.60;;;12.20;99.90;;;;;;4927722;29;20419;-62
2023/10/05 08:11:56;;;;;;;7.07;4.05;;;12.40;99.90;;;;;;4928904;29;20031;-62
2023/10/05 08:14:26;;;;;;;5.95;3.58;;;12.50;99.90;;;;;;4927465;29;20033;-62
2023/10/05 08:16:52;;;;;;;5.72;3.53;;;12.70;99.90;;;;;;4926582;29;20559;-62
2023/10/05 08:19:21;;;;;;;7.47;3.58;;;12.90;99.90;;;;;;4928130;29;20044;-63
2023/10/05 08:21:47;;;;;;;6.75;3.67;;;13.10;99.90;;;;;;4927941;29;20452;-62
2023/10/05 08:24:17;;;;;;;6.43;3.67;;;13.30;99.90;;;;;;4929620;29;20099;-63
2023/10/05 08:26:43;;;;;;;6.20;3.80;;;13.30;99.90;;;;;;4929406;29;20075;-61
2023/10/05 08:29:09;;;;;;;7.82;3.50;;;13.40;99.90;;;;;;4926674;29;20115;-62
2023/10/05 08:31:35;;;;;;;7.75;3.65;;;13.40;99.90;;;;;;4928530;29;20024;-63
2023/10/05 08:34:01;;;;;;;7.35;3.17;;;13.50;99.90;;;;;;4929841;29;20035;-63
2023/10/05 08:36:26;;;;;;;15.55;3.50;;;13.60;99.90;;;;;;4930721;29;20531;-62
2023/10/05 08:38:55;;;;;;;5.75;3.33;;;13.70;99.90;;;;;;4925654;29;20095;-62
2023/10/05 08:41:32;;;;;;;9.30;3.75;;;13.90;99.90;;;;;;4930128;29;20158;-62
2023/10/05 08:44:26;;;;;;;8.80;3.40;;;14.00;99.90;;;;;;4929353;29;20040;-63
2023/10/05 08:46:52;;;;;;;7.50;3.10;;;14.10;99.90;;;;;;4928528;29;20123;-62
2023/10/05 08:49:19;;;;;;;4.75;3.50;;;14.30;99.90;;;;;;4929422;29;20089;-62
2023/10/05 08:51:45;;;;;;;6.78;3.13;;;14.40;99.90;;;;;;4927770;29;20050;-63
2023/10/05 08:54:14;;;;;;;9.07;3.60;;;14.60;99.90;;;;;;4929329;29;20441;-62
2023/10/05 08:56:41;;;;;;;7.55;3.15;;;14.70;99.90;;;;;;4925976;29;20499;-62
2023/10/05 08:59:13;;;;;;;7.53;3.33;;;14.70;99.90;;;;;;4927427;29;20031;-62
2023/10/05 09:01:42;;;;;;;6.97;3.40;;;14.90;99.90;;;;;;4927368;29;20048;-62
2023/10/05 09:04:23;;;;;;;7.97;3.42;;;15.10;99.90;;;;;;4925629;29;20056;-62
2023/10/05 09:06:59;;;;;;;7.72;3.95;;;15.30;99.90;;;;;;4928276;29;20047;-62
2023/10/05 09:09:53;;;;;;;8.32;3.00;;;15.30;99.90;;;;;;4925731;29;20751;-62
2023/10/05 09:12:36;;;;;;;12.85;4.72;;;15.20;99.90;;;;;;4926658;29;20580;-61
2023/10/05 09:15:05;;;;;;;7.75;3.80;;;15.20;99.90;;;;;;4928916;29;20031;-64
2023/10/05 09:17:37;;;;;;;10.70;4.40;;;15.20;99.90;;;;;;4927983;29;20044;-62
2023/10/05 09:20:23;;;;;;;11.90;4.45;;;15.20;99.90;;;;;;4924515;29;20529;-63
2023/10/05 09:22:50;;;;;;;5.15;3.75;;;15.20;99.90;;;;;;4926950;29;20027;-63
2023/10/05 09:25:17;;;;;;;9.90;4.45;;;15.10;99.90;;;;;;4926963;29;20040;-62
2023/10/05 09:27:50;;;;;;;6.18;3.10;;;15.10;99.90;;;;;;4927787;29;20135;-63
2023/10/05 09:30:21;;;;;;;7.38;3.35;;;15.10;99.90;;;;;;4926775;28;20120;-62
2023/10/05 09:32:46;;;;;;;8.23;3.53;;;15.20;99.90;;;;;;4926294;29;20024;-63
2023/10/05 09:35:28;;;;;;;5.93;3.45;;;15.30;99.90;;;;;;4926116;29;20023;-62
2023/10/05 09:38:00;;;;;;;;;;;15.50;99.90;;;;;;4928080;29;20039;-63
2023/10/05 09:40:29;;;;;;;10.23;3.38;;;15.70;99.90;;;;;;4925463;29;19947;-62
2023/10/05 09:42:55;;;;;;;5.68;3.10;;;15.80;99.90;;;;;;4927342;29;20429;-62
2023/10/05 09:45:23;;;;;;;8.18;3.80;;;15.90;99.90;;;;;;4925433;29;20047;-63
2023/10/05 09:47:53;;;;;;;5.18;3.28;;;15.90;99.90;;;;;;4925072;28;20035;-63
2023/10/05 09:50:21;;;;;;;11.27;4.47;;;15.80;99.90;;;;;;4920609;29;20111;-63
2023/10/05 09:52:48;;;;;;;7.93;3.30;;;15.80;99.90;;;;;;4926528;29;20028;-63
2023/10/05 09:55:19;;;;;;;6.07;2.72;;;15.70;99.90;;;;;;4924619;29;20035;-63
2023/10/05 09:57:52;;;;;;;6.53;3.15;;;15.80;99.90;;;;;;4924040;28;20531;-62
2023/10/05 10:03:17;;;;;;;7.47;3.08;;;15.90;99.90;;;;;;4916922;29;20051;-63
2023/10/05 10:05:52;;;;;;;6.10;2.97;;;16.00;99.90;;;;;;4925988;29;20039;-63
2023/10/05 10:08:24;;;;;;;5.88;3.65;;;16.10;99.90;;;;;;4926831;29;20047;-63
2023/10/05 10:11:07;;;;;;;11.93;3.85;;;16.20;99.90;;;;;;4926135;29;20578;-62
2023/10/05 10:13:37;;;;;;;6.20;2.88;;;16.20;99.90;;;;;;4925915;29;20055;-63
2023/10/05 10:16:22;;;;;;;5.30;3.22;;;16.20;99.90;;;;;;4924095;29;20032;-63
2023/10/05 10:19:04;;;;;;;8.95;3.05;;;16.20;99.90;;;;;;4926917;29;20063;-63
2023/10/05 10:21:59;;;;;;;5.25;2.63;;;16.10;99.90;;;;;;4925293;29;20064;-62
2023/10/05 10:24:28;;;;;;;6.85;2.97;;;16.00;99.90;;;;;;4924615;29;21003;-63
2023/10/05 10:27:07;;;;;;;4.07;2.33;;;15.90;99.90;;;;;;4923974;29;20023;-62
2023/10/05 10:29:55;;;;;;;6.78;3.08;;;16.10;99.90;;;;;;4927554;29;20027;-63
2023/10/05 10:32:22;;;;;;;5.78;2.65;;;16.10;99.90;;;;;;4929431;29;20040;-63
2023/10/05 10:34:55;;;;;;;5.63;2.67;;;16.10;99.90;;;;;;4927269;29;20031;-63
2023/10/05 10:37:39;;;;;;;4.32;2.10;;;16.20;99.90;;;;;;4924590;29;20443;-63
2023/10/05 10:42:53;;;;;;;;;;;16.50;99.90;;;;;;4931540;29;20032;-62
2023/10/05 10:45:29;;;;;;;6.05;2.20;;;16.70;99.90;;;;;;4930408;29;19957;-63
2023/10/05 10:47:56;;;;;;;8.55;2.00;;;16.90;99.90;;;;;;4912965;29;20123;-63
2023/10/05 10:50:23;;;;;;;6.40;2.25;;;17.00;99.90;;;;;;4911680;29;20143;-62
2023/10/05 10:52:55;;;;;;;7.53;2.10;;;17.00;99.90;;;;;;4926687;29;20114;-62
2023/10/05 10:55:26;;;;;;;5.10;1.73;;;17.00;99.90;;;;;;4929327;29;20102;-63
2023/10/05 10:57:54;;;;;;;5.57;1.55;;;17.00;99.90;;;;;;4928116;29;20080;-63
2023/10/05 11:03:18;;;;;;;5.57;2.05;;;16.60;99.90;;;;;;4931360;29;20025;-63
2023/10/05 11:05:51;;;;;;;5.38;1.92;;;16.40;99.90;;;;;;4929384;29;20074;-62
2023/10/05 11:08:20;;;;;;;5.20;1.95;;;16.30;99.90;;;;;;4927858;29;20059;-63
2023/10/05 11:11:09;;;;;;;5.25;2.00;;;16.30;99.90;;;;;;4929394;29;20616;-62
2023/10/05 11:13:45;;;;;;;7.45;2.78;;;16.30;99.90;;;;;;4930794;29;20087;-63
2023/10/05 11:16:15;;;;;;;5.30;2.28;;;16.30;99.90;;;;;;4929754;29;20032;-62
2023/10/05 11:19:13;;;;;;;4.57;2.50;;;16.40;99.90;;;;;;4928137;29;20024;-62
2023/10/05 11:21:48;;;;;;;10.82;2.85;;;16.50;99.90;;;;;;4920483;29;20167;-63
2023/10/05 11:24:18;;;;;;;5.47;2.28;;;16.60;99.90;;;;;;4926001;29;20032;-64
2023/10/05 11:27:08;;;;;;;4.53;2.17;;;16.60;99.90;;;;;;4929308;29;20152;-63
2023/10/05 11:29:46;;;;;;;4.93;3.15;;;16.50;99.90;;;;;;4927793;29;20039;-63
2023/10/05 11:32:15;;;;;;;6.45;2.20;;;16.40;99.90;;;;;;4928678;29;20167;-62
2023/10/05 11:34:43;;;;;;;6.07;2.28;;;16.40;99.90;;;;;;4926558;29;20036;-63
2023/10/05 11:37:18;;;;;;;4.50;2.05;;;16.50;99.90;;;;;;4928946;29;20032;-62
2023/10/05 11:39:50;;;;;;;4.57;2.10;;;16.50;99.90;;;;;;4930541;29;20111;-63
2023/10/05 11:42:26;;;;;;;5.35;1.90;;;16.40;99.90;;;;;;4929222;29;20028;-62
2023/10/05 11:44:55;;;;;;;3.78;1.63;;;16.30;99.90;;;;;;4928131;29;20070;-63
2023/10/05 11:47:32;;;;;;;5.22;2.13;;;16.40;99.90;;;;;;4929308;29;20111;-63
2023/10/05 11:50:08;;;;;;;5.70;1.75;;;16.40;99.90;;;;;;4928798;29;20036;-63
2023/10/05 11:52:38;;;;;;;5.85;1.98;;;16.50;99.90;;;;;;4913520;29;20040;-63
2023/10/05 11:55:11;;;;;;;5.20;2.00;;;16.60;99.90;;;;;;4927374;29;20039;-63
2023/10/05 11:57:38;;;;;;;4.22;1.75;;;16.70;99.90;;;;;;4928294;29;20455;-63
2023/10/05 12:00:05;;;;;;;3.53;1.83;;;16.80;99.90;;;;;;4927891;29;20515;-62
2023/10/05 12:02:30;;;;;;;3.22;1.73;;;16.80;99.90;;;;;;4929888;29;20027;-62
2023/10/05 12:04:56;;;;;;;4.32;2.20;;;16.70;99.90;;;;;;4929039;29;20044;-63
2023/10/05 12:07:25;;;;;;;6.53;1.48;;;16.70;99.90;;;;;;4928763;29;20411;-63
2023/10/05 12:09:50;;;;;;;4.25;1.98;;;16.70;99.90;;;;;;4928149;29;20059;-62
2023/10/05 12:12:18;;;;;;;4.20;1.77;;;16.60;99.90;;;;;;4926624;29;20054;-62
2023/10/05 12:14:44;;;;;;;5.40;1.60;;;16.60;99.90;;;;;;4929637;29;20016;-63
2023/10/05 12:17:10;;;;;;;4.15;1.83;;;16.60;99.90;;;;;;4928090;29;20036;-63
2023/10/05 12:19:37;;;;;;;3.75;1.42;;;16.60;99.90;;;;;;4928819;29;20035;-61
2023/10/05 12:22:03;;;;;;;4.53;1.67;;;16.50;99.90;;;;;;4928863;29;20056;-63
2023/10/05 12:24:30;;;;;;;3.00;1.60;;;16.50;99.90;;;;;;4926432;29;20440;-63
2023/10/05 12:27:00;;;;;;;4.10;1.65;;;16.50;99.90;;;;;;4928495;29;20036;-63
2023/10/05 12:29:28;;;;;;;7.57;1.77;;;16.50;99.90;;;;;;4930838;29;20129;-63
2023/10/05 12:31:56;;;;;;;10.27;1.90;;;16.50;99.90;;;;;;4925926;29;20028;-63
2023/10/05 12:34:23;;;;;;;5.88;1.92;;;16.50;99.90;;;;;;4929092;28;20419;-63
2023/10/05 12:36:49;;;;;;;4.45;1.60;;;16.50;99.90;;;;;;4928021;29;20028;-64
2023/10/05 12:39:18;;;;;;;4.07;1.67;;;16.50;99.90;;;;;;4926690;28;20613;-63
2023/10/05 12:41:46;;;;;;;4.97;1.70;;;16.50;99.90;;;;;;4929557;29;20098;-62
2023/10/05 12:44:15;;;;;;;4.72;1.77;;;16.50;99.90;;;;;;4927663;29;20039;-63
2023/10/05 12:46:47;;;;;;;4.68;1.65;;;16.40;99.90;;;;;;4927869;29;20040;-62
2023/10/05 12:49:15;;;;;;;2.90;1.70;;;16.40;99.90;;;;;;4924968;29;20048;-63
2023/10/05 12:51:42;;;;;;;5.38;1.95;;;16.40;99.90;;;;;;4924551;29;20118;-63
2023/10/05 12:54:09;;;;;;;4.05;1.67;;;16.40;99.90;;;;;;4924964;29;20064;-63
2023/10/05 12:56:38;;;;;;;6.47;2.08;;;16.40;99.90;;;;;;4927454;29;20547;-63
2023/10/05 12:59:07;;;;;;;4.47;1.85;;;16.30;99.90;;;;;;4925875;29;20573;-63
2023/10/05 13:01:35;;;;;;;3.63;1.63;;;16.30;99.90;;;;;;4926751;29;20039;-63
2023/10/05 13:04:05;;;;;;;3.65;1.33;;;16.30;99.90;;;;;;4926070;29;20437;-63
2023/10/05 13:06:32;;;;;;;4.35;1.75;;;16.30;99.90;;;;;;4925964;29;20090;-62
2023/10/05 13:09:03;;;;;;;5.45;1.88;;;16.40;99.90;;;;;;4927520;29;20134;-62
2023/10/05 13:11:29;;;;;;;7.60;1.67;;;16.40;99.90;;;;;;4927364;29;20030;-62
2023/10/05 13:13:55;;;;;;;3.38;1.60;;;16.30;99.90;;;;;;4927118;29;20106;-60
2023/10/05 13:16:21;;;;;;;3.83;1.58;;;16.30;99.90;;;;;;4924730;29;20864;-63
2023/10/05 13:18:50;;;;;;;3.65;1.67;;;16.30;99.90;;;;;;4924983;29;20416;-62
2023/10/05 13:21:16;;;;;;;4.03;1.73;;;16.30;99.90;;;;;;4927347;29;20040;-63
2023/10/05 13:23:42;;;;;;;4.28;1.23;;;16.20;99.90;;;;;;4925790;29;20016;-62
2023/10/05 13:26:08;;;;;;;5.07;1.83;;;16.10;99.90;;;;;;4927088;29;20090;-62
2023/10/05 13:28:34;;;;;;;3.97;1.70;;;16.10;99.90;;;;;;4926923;29;20027;-62
2023/10/05 13:31:06;;;;;;;4.30;1.15;;;16.10;99.90;;;;;;4927547;29;20027;-62
2023/10/05 13:33:39;;;;;;;3.08;1.52;;;16.00;99.90;;;;;;4927174;29;20055;-63